sensor_id;sensor_type;location;lat;lon;timestamp;pressure;altitude;pressure_sealevel;temperature;humidity
19672;BME280;9983;51.114;13.788;2023-04-08T00:04:13;99657.69;;;6.96;100.00
19672;BME280;9983;51.114;13.788;2023-04-08T00:09:13;99648.34;;;7.19;100.00
19672;BME280;9983;51.114;13.788;2023-04-08T00:14:13;99660.41;;;7.13;100.00
19672;BME280;9983;51.114;13.788;2023-04-08T00:19:14;99661.56;;;7.11;100.00
19672;BME280;9983;51.114;13.788;2023-04-08T00:24:14;99653.34;;;6.67;100.00
19672;BME280;9983;51.114;13.788;2023-04-08T00:29:14;99650.41;;;6.98;100.00
19672;BME280;9983;51.114;13.788;2023-04-08T00:34:14;99657.13;;;7.02;100.00
19672;BME280;9983;51.114;13.788;2023-04-08T00:39:15;99655.78;;;7.15;100.00
19672;BME280;9983;51.114;13.788;2023-04-08T00:44:15;99662.47;;;7.02;100.00
19672;BME280;9983;51.114;13.788;2023-04-08T00:49:16;99659.69;;;6.94;100.00
19672;BME280;9983;51.114;13.788;2023-04-08T00:54:16;99661.44;;;7.30;100.00
19672;BME280;9983;51.114;13.788;2023-04-08T00:59:17;99642.00;;;7.20;100.00
19672;BME280;9983;51.114;13.788;2023-04-08T01:09:47;99644.66;;;7.20;100.00
19672;BME280;9983;51.114;13.788;2023-04-08T01:14:51;99639.41;;;7.10;100.00
19672;BME280;9983;51.114;13.788;2023-04-08T01:19:56;99643.59;;;7.13;100.00
19672;BME280;9983;51.114;13.788;2023-04-08T01:25:04;99648.72;;;6.97;100.00
19672;BME280;9983;51.114;13.788;2023-04-08T01:30:06;99647.72;;;7.25;100.00
19672;BME280;9983;51.114;13.788;2023-04-08T01:35:08;99645.25;;;7.14;100.00
19672;BME280;9983;51.114;13.788;2023-04-08T01:40:09;99634.84;;;7.20;100.00
19672;BME280;9983;51.114;13.788;2023-04-08T01:45:10;99640.44;;;7.27;100.00
19672;BME280;9983;51.114;13.788;2023-04-08T01:50:11;99637.50;;;7.20;100.00
19672;BME280;9983;51.114;13.788;2023-04-08T01:55:14;99639.63;;;7.17;100.00
19672;BME280;9983;51.114;13.788;2023-04-08T02:00:19;99644.19;;;7.07;100.00
19672;BME280;9983;51.114;13.788;2023-04-08T02:05:20;99647.63;;;7.44;100.00
19672;BME280;9983;51.114;13.788;2023-04-08T02:10:20;99653.38;;;7.40;100.00
19672;BME280;9983;51.114;13.788;2023-04-08T02:15:20;99651.13;;;7.62;100.00
19672;BME280;9983;51.114;13.788;2023-04-08T02:20:34;99659.69;;;7.84;100.00
19672;BME280;9983;51.114;13.788;2023-04-08T02:25:37;99647.78;;;7.60;100.00
19672;BME280;9983;51.114;13.788;2023-04-08T02:30:48;99650.38;;;7.52;100.00
19672;BME280;9983;51.114;13.788;2023-04-08T02:35:50;99656.91;;;7.40;100.00
19672;BME280;9983;51.114;13.788;2023-04-08T02:40:53;99663.31;;;7.47;100.00
19672;BME280;9983;51.114;13.788;2023-04-08T02:45:53;99660.44;;;7.58;100.00
19672;BME280;9983;51.114;13.788;2023-04-08T02:50:53;99668.59;;;7.57;100.00
19672;BME280;9983;51.114;13.788;2023-04-08T02:55:54;99669.25;;;7.41;100.00
19672;BME280;9983;51.114;13.788;2023-04-08T03:00:54;99672.19;;;7.38;100.00
19672;BME280;9983;51.114;13.788;2023-04-08T03:05:56;99668.81;;;7.63;100.00
19672;BME280;9983;51.114;13.788;2023-04-08T03:10:56;99662.28;;;7.76;100.00
19672;BME280;9983;51.114;13.788;2023-04-08T03:15:56;99668.69;;;7.83;100.00
19672;BME280;9983;51.114;13.788;2023-04-08T03:20:56;99672.94;;;7.76;100.00
19672;BME280;9983;51.114;13.788;2023-04-08T03:25:57;99671.09;;;7.58;100.00
19672;BME280;9983;51.114;13.788;2023-04-08T03:30:57;99664.47;;;7.62;100.00
19672;BME280;9983;51.114;13.788;2023-04-08T03:35:57;99666.19;;;7.36;100.00
19672;BME280;9983;51.114;13.788;2023-04-08T03:40:57;99668.41;;;7.41;100.00
19672;BME280;9983;51.114;13.788;2023-04-08T03:45:58;99668.44;;;7.58;100.00
19672;BME280;9983;51.114;13.788;2023-04-08T03:50:58;99673.78;;;7.31;100.00
19672;BME280;9983;51.114;13.788;2023-04-08T03:55:58;99670.25;;;7.58;100.00
19672;BME280;9983;51.114;13.788;2023-04-08T04:00:59;99670.75;;;7.26;100.00
19672;BME280;9983;51.114;13.788;2023-04-08T04:05:59;99672.53;;;7.08;100.00
19672;BME280;9983;51.114;13.788;2023-04-08T04:10:59;99682.84;;;7.66;100.00
19672;BME280;9983;51.114;13.788;2023-04-08T04:16:00;99688.63;;;7.79;100.00
19672;BME280;9983;51.114;13.788;2023-04-08T04:21:04;99688.63;;;7.79;100.00
19672;BME280;9983;51.114;13.788;2023-04-08T04:26:08;99692.13;;;7.61;100.00
19672;BME280;9983;51.114;13.788;2023-04-08T04:31:20;99685.84;;;7.35;100.00
19672;BME280;9983;51.114;13.788;2023-04-08T04:36:20;99691.38;;;7.51;100.00
19672;BME280;9983;51.114;13.788;2023-04-08T04:41:21;99699.16;;;7.62;100.00
19672;BME280;9983;51.114;13.788;2023-04-08T04:46:21;99703.06;;;7.68;100.00
19672;BME280;9983;51.114;13.788;2023-04-08T04:51:21;99715.66;;;7.76;100.00
19672;BME280;9983;51.114;13.788;2023-04-08T04:56:22;99726.00;;;7.79;100.00
19672;BME280;9983;51.114;13.788;2023-04-08T05:01:22;99723.13;;;7.90;100.00
19672;BME280;9983;51.114;13.788;2023-04-08T05:06:22;99713.84;;;7.94;100.00
19672;BME280;9983;51.114;13.788;2023-04-08T05:11:23;99713.84;;;7.94;100.00
19672;BME280;9983;51.114;13.788;2023-04-08T05:16:23;99719.00;;;8.13;100.00
19672;BME280;9983;51.114;13.788;2023-04-08T05:21:24;99718.41;;;7.84;100.00
19672;BME280;9983;51.114;13.788;2023-04-08T05:26:25;99722.66;;;7.77;100.00
19672;BME280;9983;51.114;13.788;2023-04-08T05:31:25;99727.69;;;7.80;100.00
19672;BME280;9983;51.114;13.788;2023-04-08T05:36:26;99728.91;;;7.68;100.00
19672;BME280;9983;51.114;13.788;2023-04-08T05:41:26;99730.44;;;7.88;100.00
19672;BME280;9983;51.114;13.788;2023-04-08T05:46:26;99747.28;;;7.88;100.00
19672;BME280;9983;51.114;13.788;2023-04-08T05:51:26;99742.38;;;8.11;100.00
19672;BME280;9983;51.114;13.788;2023-04-08T05:56:27;99750.81;;;8.07;100.00
19672;BME280;9983;51.114;13.788;2023-04-08T06:01:27;99756.38;;;8.13;100.00
19672;BME280;9983;51.114;13.788;2023-04-08T06:06:27;99753.34;;;8.08;100.00
19672;BME280;9983;51.114;13.788;2023-04-08T06:11:28;99766.03;;;8.42;100.00
19672;BME280;9983;51.114;13.788;2023-04-08T06:16:28;99769.97;;;8.73;100.00
19672;BME280;9983;51.114;13.788;2023-04-08T06:21:28;99773.34;;;8.40;100.00
19672;BME280;9983;51.114;13.788;2023-04-08T06:26:28;99772.56;;;8.65;100.00
19672;BME280;9983;51.114;13.788;2023-04-08T06:31:29;99777.16;;;8.55;100.00
19672;BME280;9983;51.114;13.788;2023-04-08T06:36:29;99781.50;;;8.73;100.00
19672;BME280;9983;51.114;13.788;2023-04-08T06:41:29;99791.56;;;9.05;100.00
19672;BME280;9983;51.114;13.788;2023-04-08T06:46:30;99785.81;;;8.92;100.00
19672;BME280;9983;51.114;13.788;2023-04-08T06:51:30;99797.81;;;8.70;100.00
19672;BME280;9983;51.114;13.788;2023-04-08T06:56:31;99812.25;;;8.95;100.00
19672;BME280;9983;51.114;13.788;2023-04-08T07:01:31;99811.91;;;8.98;100.00
19672;BME280;9983;51.114;13.788;2023-04-08T07:06:31;99818.31;;;9.05;100.00
19672;BME280;9983;51.114;13.788;2023-04-08T07:11:32;99823.75;;;9.47;100.00
19672;BME280;9983;51.114;13.788;2023-04-08T07:16:33;99814.63;;;9.58;100.00
19672;BME280;9983;51.114;13.788;2023-04-08T07:21:33;99839.69;;;9.57;100.00
19672;BME280;9983;51.114;13.788;2023-04-08T07:26:33;99829.94;;;9.48;100.00
19672;BME280;9983;51.114;13.788;2023-04-08T07:31:33;99847.63;;;9.15;100.00
19672;BME280;9983;51.114;13.788;2023-04-08T07:36:34;99853.88;;;9.24;100.00
19672;BME280;9983;51.114;13.788;2023-04-08T07:41:34;99848.53;;;9.24;100.00
19672;BME280;9983;51.114;13.788;2023-04-08T07:46:37;99860.28;;;8.87;100.00
19672;BME280;9983;51.114;13.788;2023-04-08T07:51:37;99875.81;;;9.27;100.00
19672;BME280;9983;51.114;13.788;2023-04-08T07:56:38;99874.16;;;9.52;100.00
19672;BME280;9983;51.114;13.788;2023-04-08T08:01:39;99879.16;;;9.55;100.00
19672;BME280;9983;51.114;13.788;2023-04-08T08:06:39;99886.41;;;9.97;100.00
19672;BME280;9983;51.114;13.788;2023-04-08T08:11:40;99889.94;;;10.39;100.00
19672;BME280;9983;51.114;13.788;2023-04-08T08:16:40;99884.25;;;10.34;100.00
19672;BME280;9983;51.114;13.788;2023-04-08T08:21:40;99886.63;;;10.45;100.00
19672;BME280;9983;51.114;13.788;2023-04-08T08:26:41;99885.97;;;10.59;100.00
19672;BME280;9983;51.114;13.788;2023-04-08T08:31:41;99903.09;;;10.83;100.00
19672;BME280;9983;51.114;13.788;2023-04-08T08:36:41;99909.31;;;10.83;100.00
19672;BME280;9983;51.114;13.788;2023-04-08T08:41:42;99918.88;;;11.18;100.00
19672;BME280;9983;51.114;13.788;2023-04-08T08:46:43;99918.53;;;10.89;100.00
19672;BME280;9983;51.114;13.788;2023-04-08T08:51:47;99931.44;;;10.85;100.00
19672;BME280;9983;51.114;13.788;2023-04-08T08:56:48;99931.63;;;10.92;100.00
19672;BME280;9983;51.114;13.788;2023-04-08T09:01:48;99944.66;;;10.62;100.00
19672;BME280;9983;51.114;13.788;2023-04-08T09:06:50;99941.03;;;10.96;100.00
19672;BME280;9983;51.114;13.788;2023-04-08T09:12:07;99940.25;;;10.53;100.00
19672;BME280;9983;51.114;13.788;2023-04-08T09:17:08;99954.31;;;10.55;100.00
19672;BME280;9983;51.114;13.788;2023-04-08T09:22:10;99957.38;;;10.60;100.00
19672;BME280;9983;51.114;13.788;2023-04-08T09:27:11;99958.03;;;10.54;100.00
19672;BME280;9983;51.114;13.788;2023-04-08T09:32:12;99964.19;;;10.55;100.00
19672;BME280;9983;51.114;13.788;2023-04-08T09:37:13;99966.78;;;10.73;100.00
19672;BME280;9983;51.114;13.788;2023-04-08T09:42:13;99968.75;;;10.54;100.00
19672;BME280;9983;51.114;13.788;2023-04-08T09:47:23;99969.44;;;10.64;100.00
19672;BME280;9983;51.114;13.788;2023-04-08T09:52:33;99968.50;;;11.06;99.92
19672;BME280;9983;51.114;13.788;2023-04-08T09:57:40;99981.28;;;11.04;98.47
19672;BME280;9983;51.114;13.788;2023-04-08T10:02:53;99971.19;;;11.14;95.81
19672;BME280;9983;51.114;13.788;2023-04-08T10:07:55;99980.28;;;11.29;95.80
19672;BME280;9983;51.114;13.788;2023-04-08T10:12:57;99976.41;;;11.08;94.40
19672;BME280;9983;51.114;13.788;2023-04-08T10:23:05;99981.63;;;11.33;89.51
19672;BME280;9983;51.114;13.788;2023-04-08T10:33:12;99980.25;;;11.94;83.43
19672;BME280;9983;51.114;13.788;2023-04-08T10:38:15;99975.22;;;11.91;83.63
19672;BME280;9983;51.114;13.788;2023-04-08T10:43:16;99984.63;;;11.71;79.80
19672;BME280;9983;51.114;13.788;2023-04-08T10:48:17;99981.28;;;11.85;83.36
19672;BME280;9983;51.114;13.788;2023-04-08T10:53:32;99996.06;;;11.81;82.64
19672;BME280;9983;51.114;13.788;2023-04-08T10:58:33;99992.38;;;11.50;84.12
19672;BME280;9983;51.114;13.788;2023-04-08T11:03:34;99994.34;;;11.15;86.32
19672;BME280;9983;51.114;13.788;2023-04-08T11:08:36;100000.63;;;10.74;89.27
19672;BME280;9983;51.114;13.788;2023-04-08T11:13:42;99993.94;;;10.70;92.69
19672;BME280;9983;51.114;13.788;2023-04-08T11:18:43;100003.63;;;10.62;93.60
19672;BME280;9983;51.114;13.788;2023-04-08T11:23:48;100003.22;;;10.49;95.75
19672;BME280;9983;51.114;13.788;2023-04-08T11:28:49;100015.34;;;10.61;93.25
19672;BME280;9983;51.114;13.788;2023-04-08T11:33:52;100013.09;;;10.91;93.29
19672;BME280;9983;51.114;13.788;2023-04-08T11:38:53;100004.97;;;10.67;92.54
19672;BME280;9983;51.114;13.788;2023-04-08T11:43:55;100007.06;;;10.97;92.71
19672;BME280;9983;51.114;13.788;2023-04-08T11:49:00;100007.41;;;10.94;92.54
19672;BME280;9983;51.114;13.788;2023-04-08T11:54:04;100016.81;;;11.06;88.68
19672;BME280;9983;51.114;13.788;2023-04-08T11:59:08;100014.22;;;10.80;92.89
19672;BME280;9983;51.114;13.788;2023-04-08T12:04:09;100026.28;;;10.34;93.18
19672;BME280;9983;51.114;13.788;2023-04-08T12:09:10;100024.03;;;10.55;93.64
19672;BME280;9983;51.114;13.788;2023-04-08T12:14:10;100033.97;;;11.21;91.37
19672;BME280;9983;51.114;13.788;2023-04-08T12:19:10;100032.63;;;11.25;91.74
19672;BME280;9983;51.114;13.788;2023-04-08T12:24:11;100039.78;;;11.00;91.72
19672;BME280;9983;51.114;13.788;2023-04-08T12:29:11;100046.41;;;11.55;88.11
19672;BME280;9983;51.114;13.788;2023-04-08T12:34:11;100049.72;;;11.24;88.78
19672;BME280;9983;51.114;13.788;2023-04-08T12:39:12;100059.16;;;11.45;89.19
19672;BME280;9983;51.114;13.788;2023-04-08T12:44:12;100059.69;;;10.90;91.22
19672;BME280;9983;51.114;13.788;2023-04-08T12:49:12;100067.88;;;10.46;94.67
19672;BME280;9983;51.114;13.788;2023-04-08T12:54:13;100075.16;;;10.28;95.15
19672;BME280;9983;51.114;13.788;2023-04-08T12:59:13;100074.09;;;10.21;95.84
19672;BME280;9983;51.114;13.788;2023-04-08T13:04:13;100070.47;;;10.30;98.57
19672;BME280;9983;51.114;13.788;2023-04-08T13:09:14;100074.88;;;10.73;97.63
19672;BME280;9983;51.114;13.788;2023-04-08T13:14:14;100071.16;;;10.66;95.95
19672;BME280;9983;51.114;13.788;2023-04-08T13:19:15;100068.28;;;10.59;94.83
19672;BME280;9983;51.114;13.788;2023-04-08T13:24:15;100061.81;;;11.20;92.44
19672;BME280;9983;51.114;13.788;2023-04-08T13:29:15;100066.50;;;11.26;91.28
19672;BME280;9983;51.114;13.788;2023-04-08T13:34:16;100072.91;;;11.33;89.09
19672;BME280;9983;51.114;13.788;2023-04-08T13:39:16;100073.94;;;11.65;85.86
19672;BME280;9983;51.114;13.788;2023-04-08T13:44:16;100063.84;;;11.34;85.24
19672;BME280;9983;51.114;13.788;2023-04-08T13:49:16;100080.44;;;10.80;87.11
19672;BME280;9983;51.114;13.788;2023-04-08T13:54:17;100085.38;;;10.58;87.06
19672;BME280;9983;51.114;13.788;2023-04-08T13:59:17;100074.31;;;10.53;88.32
19672;BME280;9983;51.114;13.788;2023-04-08T14:04:21;100085.09;;;10.70;86.73
19672;BME280;9983;51.114;13.788;2023-04-08T14:09:22;100089.81;;;10.76;87.01
19672;BME280;9983;51.114;13.788;2023-04-08T14:14:23;100091.50;;;10.77;85.44
19672;BME280;9983;51.114;13.788;2023-04-08T14:19:23;100095.88;;;10.78;85.57
19672;BME280;9983;51.114;13.788;2023-04-08T14:24:23;100100.84;;;10.73;86.35
19672;BME280;9983;51.114;13.788;2023-04-08T14:29:24;100095.13;;;10.59;85.45
19672;BME280;9983;51.114;13.788;2023-04-08T14:34:24;100120.50;;;10.47;87.49
19672;BME280;9983;51.114;13.788;2023-04-08T14:39:24;100110.09;;;10.01;88.25
19672;BME280;9983;51.114;13.788;2023-04-08T14:44:25;100110.66;;;10.30;87.21
19672;BME280;9983;51.114;13.788;2023-04-08T14:49:25;100104.88;;;10.17;87.53
19672;BME280;9983;51.114;13.788;2023-04-08T14:54:25;100102.00;;;9.93;86.69
19672;BME280;9983;51.114;13.788;2023-04-08T14:59:25;100108.78;;;10.48;85.21
19672;BME280;9983;51.114;13.788;2023-04-08T15:04:26;100099.34;;;10.36;83.56
19672;BME280;9983;51.114;13.788;2023-04-08T15:09:26;100106.09;;;10.05;85.68
19672;BME280;9983;51.114;13.788;2023-04-08T15:14:26;100103.19;;;10.16;85.39
19672;BME280;9983;51.114;13.788;2023-04-08T15:19:26;100113.16;;;10.06;84.76
19672;BME280;9983;51.114;13.788;2023-04-08T15:24:27;100115.59;;;10.17;83.57
19672;BME280;9983;51.114;13.788;2023-04-08T15:29:27;100117.56;;;10.15;82.87
19672;BME280;9983;51.114;13.788;2023-04-08T15:34:28;100123.56;;;10.09;83.14
19672;BME280;9983;51.114;13.788;2023-04-08T15:39:28;100131.41;;;10.20;80.85
19672;BME280;9983;51.114;13.788;2023-04-08T15:44:30;100127.09;;;9.92;82.90
19672;BME280;9983;51.114;13.788;2023-04-08T15:49:31;100132.69;;;9.63;84.56
19672;BME280;9983;51.114;13.788;2023-04-08T15:54:34;100137.38;;;9.78;83.78
19672;BME280;9983;51.114;13.788;2023-04-08T15:59:34;100135.78;;;9.85;83.39
19672;BME280;9983;51.114;13.788;2023-04-08T16:04:35;100144.66;;;9.68;83.71
19672;BME280;9983;51.114;13.788;2023-04-08T16:09:35;100152.06;;;9.74;83.74
19672;BME280;9983;51.114;13.788;2023-04-08T16:14:36;100154.66;;;10.02;84.68
19672;BME280;9983;51.114;13.788;2023-04-08T16:19:36;100169.03;;;9.83;84.02
19672;BME280;9983;51.114;13.788;2023-04-08T16:24:36;100171.47;;;9.41;86.76
19672;BME280;9983;51.114;13.788;2023-04-08T16:29:37;100162.69;;;9.66;85.72
19672;BME280;9983;51.114;13.788;2023-04-08T16:34:37;100170.47;;;9.14;88.78
19672;BME280;9983;51.114;13.788;2023-04-08T16:39:37;100165.31;;;9.31;87.57
19672;BME280;9983;51.114;13.788;2023-04-08T16:44:37;100176.34;;;9.28;88.55
19672;BME280;9983;51.114;13.788;2023-04-08T16:49:38;100186.31;;;9.53;85.72
19672;BME280;9983;51.114;13.788;2023-04-08T16:54:38;100174.47;;;9.10;87.17
19672;BME280;9983;51.114;13.788;2023-04-08T16:59:38;100187.78;;;8.83;89.23
19672;BME280;9983;51.114;13.788;2023-04-08T17:04:38;100184.47;;;9.36;87.78
19672;BME280;9983;51.114;13.788;2023-04-08T17:09:40;100193.94;;;9.48;87.38
19672;BME280;9983;51.114;13.788;2023-04-08T17:14:40;100193.53;;;9.70;86.78
19672;BME280;9983;51.114;13.788;2023-04-08T17:19:41;100204.19;;;9.35;88.37
19672;BME280;9983;51.114;13.788;2023-04-08T17:24:42;100202.69;;;9.50;86.83
19672;BME280;9983;51.114;13.788;2023-04-08T17:29:44;100214.09;;;9.52;87.51
19672;BME280;9983;51.114;13.788;2023-04-08T17:34:45;100215.16;;;9.32;88.55
19672;BME280;9983;51.114;13.788;2023-04-08T17:39:45;100213.84;;;9.63;86.07
19672;BME280;9983;51.114;13.788;2023-04-08T17:44:46;100228.97;;;9.37;87.02
19672;BME280;9983;51.114;13.788;2023-04-08T17:49:47;100237.09;;;9.45;86.70
19672;BME280;9983;51.114;13.788;2023-04-08T17:54:47;100240.81;;;9.34;86.52
19672;BME280;9983;51.114;13.788;2023-04-08T17:59:47;100246.44;;;9.31;88.50
19672;BME280;9983;51.114;13.788;2023-04-08T18:04:48;100257.00;;;9.33;87.68
19672;BME280;9983;51.114;13.788;2023-04-08T18:09:49;100258.31;;;9.29;88.29
19672;BME280;9983;51.114;13.788;2023-04-08T18:14:49;100257.75;;;9.25;87.47
19672;BME280;9983;51.114;13.788;2023-04-08T18:19:50;100263.72;;;9.09;88.12
19672;BME280;9983;51.114;13.788;2023-04-08T18:24:50;100263.72;;;9.09;88.75
19672;BME280;9983;51.114;13.788;2023-04-08T18:29:50;100269.59;;;8.76;90.64
19672;BME280;9983;51.114;13.788;2023-04-08T18:34:52;100288.50;;;9.11;87.45
19672;BME280;9983;51.114;13.788;2023-04-08T18:39:53;100286.28;;;8.88;90.88
19672;BME280;9983;51.114;13.788;2023-04-08T18:44:53;100282.34;;;8.92;88.77
19672;BME280;9983;51.114;13.788;2023-04-08T18:49:53;100287.19;;;8.69;91.50
19672;BME280;9983;51.114;13.788;2023-04-08T18:54:53;100296.19;;;8.68;91.70
19672;BME280;9983;51.114;13.788;2023-04-08T18:59:54;100306.72;;;8.79;91.11
19672;BME280;9983;51.114;13.788;2023-04-08T19:04:54;100316.47;;;8.42;95.76
19672;BME280;9983;51.114;13.788;2023-04-08T19:09:58;100316.13;;;8.25;98.32
19672;BME280;9983;51.114;13.788;2023-04-08T19:14:58;100314.75;;;8.41;98.17
19672;BME280;9983;51.114;13.788;2023-04-08T19:19:58;100306.31;;;8.55;93.01
19672;BME280;9983;51.114;13.788;2023-04-08T19:24:58;100310.19;;;8.12;96.88
19672;BME280;9983;51.114;13.788;2023-04-08T19:29:59;100306.59;;;8.32;93.86
19672;BME280;9983;51.114;13.788;2023-04-08T19:35:00;100310.47;;;7.99;96.19
19672;BME280;9983;51.114;13.788;2023-04-08T19:40:00;100313.19;;;6.99;100.00
19672;BME280;9983;51.114;13.788;2023-04-08T19:45:01;100307.69;;;7.21;100.00
19672;BME280;9983;51.114;13.788;2023-04-08T19:50:01;100304.69;;;7.35;100.00
19672;BME280;9983;51.114;13.788;2023-04-08T19:55:02;100301.09;;;6.95;100.00
19672;BME280;9983;51.114;13.788;2023-04-08T20:00:02;100313.78;;;6.29;100.00
19672;BME280;9983;51.114;13.788;2023-04-08T20:05:03;100320.75;;;6.94;100.00
19672;BME280;9983;51.114;13.788;2023-04-08T20:10:04;100327.09;;;6.81;100.00
19672;BME280;9983;51.114;13.788;2023-04-08T20:15:05;100323.59;;;6.81;100.00
19672;BME280;9983;51.114;13.788;2023-04-08T20:20:06;100324.81;;;6.98;100.00
19672;BME280;9983;51.114;13.788;2023-04-08T20:25:06;100327.47;;;6.56;100.00
19672;BME280;9983;51.114;13.788;2023-04-08T20:30:07;100325.13;;;6.42;100.00
19672;BME280;9983;51.114;13.788;2023-04-08T20:35:07;100320.75;;;6.52;100.00
19672;BME280;9983;51.114;13.788;2023-04-08T20:40:08;100307.22;;;6.44;100.00
19672;BME280;9983;51.114;13.788;2023-04-08T20:45:09;100321.19;;;5.93;100.00
19672;BME280;9983;51.114;13.788;2023-04-08T20:50:10;100316.53;;;6.18;100.00
19672;BME280;9983;51.114;13.788;2023-04-08T20:55:10;100330.28;;;5.68;100.00
19672;BME280;9983;51.114;13.788;2023-04-08T21:00:10;100328.47;;;5.36;100.00
19672;BME280;9983;51.114;13.788;2023-04-08T21:05:12;100317.53;;;4.94;100.00
19672;BME280;9983;51.114;13.788;2023-04-08T21:10:13;100328.44;;;5.13;100.00
19672;BME280;9983;51.114;13.788;2023-04-08T21:15:13;100335.22;;;4.25;100.00
19672;BME280;9983;51.114;13.788;2023-04-08T21:20:13;100345.38;;;4.31;100.00
19672;BME280;9983;51.114;13.788;2023-04-08T21:25:15;100350.97;;;4.39;100.00
19672;BME280;9983;51.114;13.788;2023-04-08T21:30:16;100341.09;;;4.41;100.00
19672;BME280;9983;51.114;13.788;2023-04-08T21:35:17;100338.69;;;4.95;100.00
19672;BME280;9983;51.114;13.788;2023-04-08T21:40:17;100344.16;;;4.24;100.00
19672;BME280;9983;51.114;13.788;2023-04-08T21:45:17;100354.03;;;3.86;100.00
19672;BME280;9983;51.114;13.788;2023-04-08T21:50:18;100352.69;;;4.16;100.00
19672;BME280;9983;51.114;13.788;2023-04-08T21:55:18;100362.72;;;4.24;100.00
19672;BME280;9983;51.114;13.788;2023-04-08T22:00:18;100355.78;;;4.34;100.00
19672;BME280;9983;51.114;13.788;2023-04-08T22:05:19;100357.06;;;4.05;100.00
19672;BME280;9983;51.114;13.788;2023-04-08T22:10:19;100354.13;;;3.35;100.00
19672;BME280;9983;51.114;13.788;2023-04-08T22:15:19;100350.97;;;3.04;100.00
19672;BME280;9983;51.114;13.788;2023-04-08T22:20:20;100350.00;;;2.80;100.00
19672;BME280;9983;51.114;13.788;2023-04-08T22:25:20;100340.69;;;2.87;100.00
19672;BME280;9983;51.114;13.788;2023-04-08T22:30:21;100343.47;;;3.24;100.00
19672;BME280;9983;51.114;13.788;2023-04-08T22:35:21;100332.44;;;3.04;100.00
19672;BME280;9983;51.114;13.788;2023-04-08T22:40:21;100334.13;;;3.05;100.00
19672;BME280;9983;51.114;13.788;2023-04-08T22:45:22;100324.91;;;3.24;100.00
19672;BME280;9983;51.114;13.788;2023-04-08T22:50:22;100320.97;;;3.78;100.00
19672;BME280;9983;51.114;13.788;2023-04-08T22:55:22;100326.41;;;4.01;100.00
19672;BME280;9983;51.114;13.788;2023-04-08T23:00:23;100332.97;;;3.22;100.00
19672;BME280;9983;51.114;13.788;2023-04-08T23:05:23;100335.31;;;2.76;100.00
19672;BME280;9983;51.114;13.788;2023-04-08T23:10:23;100337.00;;;3.02;100.00
19672;BME280;9983;51.114;13.788;2023-04-08T23:15:23;100340.59;;;3.01;100.00
19672;BME280;9983;51.114;13.788;2023-04-08T23:20:24;100343.75;;;2.94;100.00
19672;BME280;9983;51.114;13.788;2023-04-08T23:25:24;100338.84;;;2.50;100.00
19672;BME280;9983;51.114;13.788;2023-04-08T23:30:24;100343.94;;;2.53;100.00
19672;BME280;9983;51.114;13.788;2023-04-08T23:35:25;100346.84;;;2.88;100.00
19672;BME280;9983;51.114;13.788;2023-04-08T23:40:25;100342.50;;;3.25;100.00
19672;BME280;9983;51.114;13.788;2023-04-08T23:45:25;100346.75;;;2.89;100.00
19672;BME280;9983;51.114;13.788;2023-04-08T23:50:25;100343.16;;;2.90;100.00
19672;BME280;9983;51.114;13.788;2023-04-08T23:55:26;100346.28;;;2.70;100.00
